createdAt,value
2023-05-07T00:01:12.963Z,5.82
2023-05-07T00:03:51.993Z,7.35
2023-05-07T00:06:32.716Z,7.45
2023-05-07T00:09:02.022Z,6.40
2023-05-07T00:11:29.716Z,7.18
2023-05-07T00:13:57.908Z,6.82
2023-05-07T00:16:25.863Z,7.30
2023-05-07T00:18:57.176Z,7.78
2023-05-07T00:21:30.399Z,6.03
2023-05-07T00:24:01.414Z,5.63
2023-05-07T00:26:35.293Z,5.53
2023-05-07T00:29:06.437Z,5.22
2023-05-07T00:31:34.099Z,4.20
2023-05-07T00:34:23.595Z,4.70
2023-05-07T00:36:51.456Z,4.05
2023-05-07T00:39:19.224Z,3.53
2023-05-07T00:42:06.451Z,4.13
2023-05-07T00:44:40.542Z,3.88
2023-05-07T00:47:09.937Z,3.28
2023-05-07T00:49:43.889Z,3.70
2023-05-07T00:52:17.797Z,3.70
2023-05-07T00:54:49.692Z,3.60
2023-05-07T00:57:26.918Z,3.50
2023-05-07T00:59:54.880Z,4.63
2023-05-07T01:02:24.978Z,3.92
2023-05-07T01:04:53.014Z,3.90
2023-05-07T01:07:25.065Z,5.28
2023-05-07T01:13:29.821Z,4.10
2023-05-07T01:15:57.723Z,4.07
2023-05-07T01:18:27.896Z,5.07
2023-05-07T01:20:59.198Z,4.18
2023-05-07T01:23:32.004Z,4.85
2023-05-07T01:26:10.546Z,4.43
2023-05-07T01:28:40.627Z,4.20
2023-05-07T01:31:11.209Z,4.53
2023-05-07T01:33:41.926Z,5.05
2023-05-07T01:36:11.514Z,4.68
2023-05-07T01:38:43.398Z,4.80
2023-05-07T01:41:11.625Z,5.18
2023-05-07T01:43:46.665Z,5.20
2023-05-07T01:46:15.897Z,5.30
2023-05-07T01:48:47.191Z,5.63
2023-05-07T01:51:15.425Z,5.35
2023-05-07T01:53:46.160Z,6.38
2023-05-07T01:56:17.792Z,6.10
2023-05-07T01:58:51.952Z,7.35
2023-05-07T02:01:19.937Z,5.85
2023-05-07T02:04:02.344Z,5.70
2023-05-07T02:07:02.661Z,5.93
2023-05-07T02:09:42.581Z,6.22
2023-05-07T02:12:23.836Z,6.47
2023-05-07T02:14:55.126Z,7.50
2023-05-07T02:18:00.408Z,6.75
2023-05-07T02:31:15.918Z,9.02
2023-05-07T02:33:46.916Z,8.50
2023-05-07T02:37:22.698Z,10.25
2023-05-07T02:40:00.209Z,9.77
2023-05-07T02:42:35.082Z,8.75
2023-05-07T02:45:13.766Z,9.15
2023-05-07T02:47:53.841Z,9.10
2023-05-07T02:50:22.101Z,9.93
2023-05-07T02:52:53.017Z,10.30
2023-05-07T02:55:21.073Z,9.70
2023-05-07T03:00:56.304Z,11.10
2023-05-07T03:03:41.722Z,10.68
2023-05-07T03:06:16.749Z,10.43
2023-05-07T03:08:53.430Z,10.90
2023-05-07T03:11:24.501Z,11.70
2023-05-07T03:13:57.391Z,12.32
2023-05-07T03:16:43.117Z,12.02
2023-05-07T03:19:13.763Z,12.18
2023-05-07T03:21:51.082Z,11.95
2023-05-07T03:24:23.313Z,12.25
2023-05-07T03:26:51.100Z,12.07
2023-05-07T03:29:25.378Z,12.52
2023-05-07T03:31:53.328Z,11.77
2023-05-07T03:34:28.571Z,13.02
2023-05-07T03:37:12.583Z,11.65
2023-05-07T03:44:18.538Z,11.27
2023-05-07T03:46:47.884Z,11.93
2023-05-07T03:49:27.824Z,10.88
2023-05-07T03:52:02.292Z,11.55
2023-05-07T03:54:53.690Z,10.98
2023-05-07T03:57:24.799Z,10.82
2023-05-07T04:00:02.706Z,10.90
2023-05-07T04:02:37.216Z,10.57
2023-05-07T04:05:13.044Z,10.88
2023-05-07T04:08:19.667Z,10.45
2023-05-07T04:11:08.006Z,10.38
2023-05-07T04:13:45.630Z,10.90
2023-05-07T04:16:24.376Z,10.38
2023-05-07T04:18:52.301Z,10.30
2023-05-07T04:21:27.665Z,10.98
2023-05-07T04:24:14.864Z,9.05
2023-05-07T04:29:31.398Z,9.23
2023-05-07T04:32:01.914Z,10.15
2023-05-07T04:34:31.001Z,9.43
2023-05-07T04:37:05.046Z,9.43
2023-05-07T04:39:47.101Z,9.23
2023-05-07T04:43:39.852Z,10.48
2023-05-07T04:46:37.188Z,8.88
2023-05-07T04:49:32.060Z,9.55
2023-05-07T04:52:00.747Z,11.13
2023-05-07T04:54:32.524Z,10.25
2023-05-07T04:57:11.058Z,9.98
2023-05-07T04:59:38.713Z,11.55
2023-05-07T05:02:09.277Z,10.77
2023-05-07T05:04:37.951Z,10.55
2023-05-07T05:07:06.544Z,11.55
2023-05-07T05:09:34.749Z,11.57
2023-05-07T05:12:03.025Z,9.63
2023-05-07T05:15:20.153Z,10.85
2023-05-07T05:20:49.822Z,11.43
2023-05-07T05:23:30.235Z,11.27
2023-05-07T05:26:12.746Z,11.52
2023-05-07T05:28:52.797Z,11.57
2023-05-07T05:31:23.097Z,12.05
2023-05-07T05:34:03.254Z,11.95
2023-05-07T05:36:35.782Z,9.75
2023-05-07T05:39:11.971Z,11.68
2023-05-07T05:41:56.631Z,10.85
2023-05-07T05:44:45.836Z,11.82
2023-05-07T05:47:23.707Z,12.13
2023-05-07T05:49:54.711Z,11.00
2023-05-07T05:52:27.776Z,11.93
2023-05-07T05:54:59.315Z,9.30
2023-05-07T05:57:34.931Z,10.77
2023-05-07T06:00:15.848Z,10.95
2023-05-07T06:06:46.423Z,10.48
2023-05-07T06:09:55.818Z,9.95
2023-05-07T06:15:49.378Z,10.15
2023-05-07T06:18:49.236Z,10.63
2023-05-07T06:21:19.722Z,10.55
2023-05-07T06:23:47.943Z,9.48
2023-05-07T06:26:34.947Z,8.55
2023-05-07T06:29:13.372Z,8.82
2023-05-07T06:31:43.552Z,9.95
2023-05-07T06:34:18.604Z,10.63
2023-05-07T06:40:40.009Z,9.85
2023-05-07T06:43:12.297Z,9.07
2023-05-07T06:53:36.732Z,10.55
2023-05-07T07:00:07.624Z,10.43
2023-05-07T07:02:55.728Z,10.73
2023-05-07T07:06:16.129Z,12.07
2023-05-07T07:09:03.595Z,11.60
2023-05-07T07:11:41.461Z,12.02
2023-05-07T07:14:11.276Z,11.63
2023-05-07T07:16:55.661Z,11.55
2023-05-07T07:19:25.501Z,10.07
2023-05-07T07:21:56.194Z,10.73
2023-05-07T07:24:34.278Z,11.15
2023-05-07T07:27:06.171Z,11.45
2023-05-07T07:29:35.578Z,11.75
2023-05-07T07:32:04.303Z,9.75
2023-05-07T07:34:41.084Z,11.60
2023-05-07T07:37:09.489Z,11.15
2023-05-07T07:39:59.396Z,10.75
2023-05-07T07:42:37.501Z,12.90
2023-05-07T07:45:23.575Z,11.80
2023-05-07T07:47:59.433Z,11.23
2023-05-07T07:50:45.091Z,10.35
2023-05-07T07:53:15.636Z,10.88
2023-05-07T07:55:58.089Z,10.30
2023-05-07T07:58:49.280Z,10.60
2023-05-07T08:01:26.257Z,10.45
2023-05-07T08:03:58.649Z,10.45
2023-05-07T08:06:28.203Z,9.80
2023-05-07T08:08:58.502Z,10.50
2023-05-07T08:11:26.980Z,9.98
2023-05-07T08:13:57.506Z,8.60
2023-05-07T08:16:26.245Z,10.57
2023-05-07T08:18:59.086Z,10.55
2023-05-07T08:21:30.957Z,11.23
2023-05-07T08:24:01.705Z,11.25
2023-05-07T08:26:30.523Z,8.90
2023-05-07T08:28:58.674Z,10.18
2023-05-07T08:31:27.458Z,9.98
2023-05-07T08:33:57.424Z,10.30
2023-05-07T08:36:25.582Z,9.40
2023-05-07T08:38:54.244Z,9.35
2023-05-07T08:41:22.725Z,9.77
2023-05-07T08:43:51.729Z,9.07
2023-05-07T08:46:21.928Z,7.90
2023-05-07T08:48:52.792Z,7.53
2023-05-07T08:51:22.211Z,6.60
2023-05-07T08:53:51.387Z,7.47
2023-05-07T08:56:26.343Z,7.28
2023-05-07T08:58:59.649Z,6.50
2023-05-07T09:01:39.647Z,6.32
2023-05-07T09:04:08.214Z,7.22
2023-05-07T09:06:36.425Z,6.57
2023-05-07T09:09:06.439Z,6.10
2023-05-07T09:11:35.088Z,5.90
2023-05-07T09:14:03.836Z,6.18
2023-05-07T09:16:36.910Z,5.20
2023-05-07T09:19:06.634Z,4.80
2023-05-07T09:21:37.584Z,6.22
2023-05-07T09:24:08.779Z,6.18
2023-05-07T09:26:40.798Z,5.63
2023-05-07T09:29:11.311Z,5.25
2023-05-07T09:31:39.972Z,5.28
2023-05-07T09:34:09.911Z,4.57
2023-05-07T09:36:46.896Z,4.40
2023-05-07T09:39:15.376Z,4.93
2023-05-07T09:41:47.082Z,5.28
2023-05-07T09:44:21.961Z,5.43
2023-05-07T09:46:56.597Z,6.20
2023-05-07T09:49:39.097Z,4.85
2023-05-07T09:52:11.597Z,4.57
2023-05-07T09:54:50.626Z,4.68
2023-05-07T09:57:21.616Z,3.95
2023-05-07T09:59:54.632Z,5.72
2023-05-07T10:02:22.782Z,4.57
2023-05-07T10:04:55.145Z,4.43
2023-05-07T10:07:29.075Z,4.97
2023-05-07T10:10:05.717Z,4.63
2023-05-07T10:12:40.326Z,5.60
2023-05-07T10:15:15.519Z,5.33
2023-05-07T10:17:48.022Z,5.05
2023-05-07T10:20:16.675Z,4.60
2023-05-07T10:22:48.536Z,4.85
2023-05-07T10:25:33.732Z,4.65
2023-05-07T10:28:12.314Z,4.38
2023-05-07T10:31:07.303Z,4.95
2023-05-07T10:33:44.268Z,5.00
2023-05-07T10:36:12.615Z,5.32
2023-05-07T10:38:41.693Z,4.60
2023-05-07T10:41:09.632Z,4.47
2023-05-07T10:43:45.221Z,5.25
2023-05-07T10:46:30.096Z,4.30
2023-05-07T10:49:12.860Z,4.60
2023-05-07T10:52:18.398Z,4.55
2023-05-07T10:55:22.970Z,4.43
2023-05-07T11:01:03.108Z,4.50
2023-05-07T11:04:15.996Z,4.60
2023-05-07T11:07:10.558Z,4.68
2023-05-07T11:10:05.799Z,4.63
2023-05-07T11:12:44.136Z,4.10
2023-05-07T11:15:39.572Z,4.03
2023-05-07T11:18:18.070Z,4.20
2023-05-07T11:20:57.982Z,4.25
2023-05-07T11:23:42.729Z,3.72
2023-05-07T11:26:17.988Z,4.20
2023-05-07T11:28:47.176Z,4.55
2023-05-07T11:31:14.831Z,4.05
2023-05-07T11:33:44.672Z,4.10
2023-05-07T11:36:16.411Z,3.95
2023-05-07T11:38:48.361Z,4.75
2023-05-07T11:41:17.483Z,4.82
2023-05-07T11:43:58.942Z,4.18
2023-05-07T11:46:27.586Z,5.65
2023-05-07T11:48:55.570Z,4.50
2023-05-07T11:51:27.255Z,4.53
2023-05-07T11:53:55.096Z,4.07
2023-05-07T11:56:22.598Z,3.58
2023-05-07T11:58:51.982Z,3.85
2023-05-07T12:01:19.431Z,3.28
2023-05-07T12:03:47.694Z,3.28
2023-05-07T12:06:18.370Z,4.00
2023-05-07T12:08:48.319Z,4.13
2023-05-07T12:11:26.859Z,3.63
2023-05-07T12:13:59.089Z,4.18
2023-05-07T12:16:27.984Z,3.72
2023-05-07T12:18:56.292Z,3.63
2023-05-07T12:21:25.344Z,3.78
2023-05-07T12:23:52.701Z,4.05
2023-05-07T12:26:27.859Z,5.05
2023-05-07T12:28:55.903Z,5.38
2023-05-07T12:31:23.139Z,5.80
2023-05-07T12:33:50.850Z,4.80
2023-05-07T12:36:18.293Z,6.13
2023-05-07T12:38:45.904Z,5.68
2023-05-07T12:41:13.560Z,6.00
2023-05-07T12:43:44.609Z,5.45
2023-05-07T12:46:14.538Z,4.32
2023-05-07T12:48:47.295Z,4.35
2023-05-07T12:51:16.066Z,3.70
2023-05-07T12:53:44.010Z,4.15
2023-05-07T12:56:11.620Z,3.72
2023-05-07T12:58:38.970Z,3.00
2023-05-07T13:01:10.662Z,3.95
2023-05-07T13:03:39.483Z,2.85
2023-05-07T13:06:11.257Z,3.58
2023-05-07T13:08:42.365Z,5.10
2023-05-07T13:11:11.174Z,4.30
2023-05-07T13:13:39.874Z,3.90
2023-05-07T13:16:09.910Z,4.15
2023-05-07T13:18:38.989Z,4.75
2023-05-07T13:21:06.706Z,4.10
2023-05-07T13:23:34.811Z,3.40
2023-05-07T13:26:08.605Z,3.20
2023-05-07T13:28:39.037Z,3.10
2023-05-07T13:31:06.535Z,4.15
2023-05-07T13:33:33.827Z,3.60
2023-05-07T13:36:01.730Z,2.85
2023-05-07T13:38:28.984Z,3.28
2023-05-07T13:40:56.400Z,3.42
2023-05-07T13:43:23.718Z,4.22
2023-05-07T13:45:51.159Z,4.30
2023-05-07T13:48:18.553Z,4.50
2023-05-07T13:50:46.076Z,3.92
2023-05-07T13:53:13.391Z,3.47
2023-05-07T13:55:40.692Z,3.55
2023-05-07T13:58:07.995Z,4.13
2023-05-07T14:00:35.569Z,2.75
2023-05-07T14:03:03.253Z,2.85
2023-05-07T14:05:30.675Z,3.47
2023-05-07T14:08:00.835Z,2.72
2023-05-07T14:10:28.377Z,2.83
2023-05-07T14:12:56.108Z,2.38
2023-05-07T14:15:23.624Z,2.38
2023-05-07T14:17:51.084Z,2.85
2023-05-07T14:20:18.499Z,2.53
2023-05-07T14:22:47.316Z,2.85
2023-05-07T14:25:15.002Z,2.70
2023-05-07T14:27:44.911Z,2.75
2023-05-07T14:30:12.828Z,2.72
2023-05-07T14:32:41.331Z,3.25
2023-05-07T14:35:09.647Z,2.05
2023-05-07T14:37:37.345Z,2.88
2023-05-07T14:40:05.222Z,2.78
2023-05-07T14:42:32.693Z,1.88
2023-05-07T14:45:00.190Z,2.28
2023-05-07T14:47:27.538Z,2.45
2023-05-07T14:49:56.099Z,2.72
2023-05-07T14:52:23.491Z,2.20
2023-05-07T14:54:50.893Z,1.95
2023-05-07T14:57:19.641Z,2.13
2023-05-07T14:59:48.152Z,2.15
2023-05-07T15:02:16.135Z,2.00
2023-05-07T15:04:46.898Z,2.65
2023-05-07T15:07:16.437Z,2.35
2023-05-07T15:09:44.315Z,2.20
2023-05-07T15:12:13.974Z,2.58
2023-05-07T15:14:42.488Z,2.17
2023-05-07T15:17:10.028Z,2.47
2023-05-07T15:19:37.414Z,1.67
2023-05-07T15:22:04.956Z,2.00
2023-05-07T15:24:32.341Z,1.90
2023-05-07T15:27:00.009Z,2.17
2023-05-07T15:29:28.389Z,2.00
2023-05-07T15:31:58.250Z,2.15
2023-05-07T15:34:25.878Z,1.90
2023-05-07T15:36:53.391Z,1.80
2023-05-07T15:39:24.799Z,1.95
2023-05-07T15:42:02.237Z,1.67
2023-05-07T15:44:32.051Z,2.13
2023-05-07T15:47:00.886Z,1.60
2023-05-07T15:49:31.409Z,1.88
2023-05-07T15:51:59.069Z,2.38
2023-05-07T15:54:26.982Z,2.03
2023-05-07T15:56:55.799Z,2.05
2023-05-07T15:59:23.237Z,1.80
2023-05-07T16:01:51.314Z,1.50
2023-05-07T16:04:18.695Z,2.35
2023-05-07T16:06:47.441Z,1.95
2023-05-07T16:09:15.410Z,1.50
2023-05-07T16:11:42.993Z,1.75
2023-05-07T16:14:10.356Z,1.92
2023-05-07T16:16:42.483Z,1.85
2023-05-07T16:19:10.114Z,1.80
2023-05-07T16:21:38.261Z,1.20
2023-05-07T16:24:05.836Z,1.80
2023-05-07T16:26:33.237Z,1.85
2023-05-07T16:29:04.168Z,1.77
2023-05-07T16:31:33.558Z,2.20
2023-05-07T16:34:01.192Z,1.65
2023-05-07T16:36:29.320Z,1.52
2023-05-07T16:39:03.520Z,2.58
2023-05-07T16:41:31.083Z,2.20
2023-05-07T16:43:58.657Z,2.33
2023-05-07T16:46:26.436Z,1.88
2023-05-07T16:48:54.161Z,3.03
2023-05-07T16:51:24.483Z,3.78
2023-05-07T16:53:52.474Z,2.08
2023-05-07T16:56:19.919Z,2.50
2023-05-07T16:58:47.207Z,4.47
2023-05-07T17:01:16.465Z,14.48
2023-05-07T17:03:43.951Z,3.75
2023-05-07T17:06:15.089Z,1.88
2023-05-07T17:08:43.252Z,5.00
2023-05-07T17:11:11.414Z,2.30
2023-05-07T17:13:39.016Z,2.30
2023-05-07T17:16:06.814Z,2.20
2023-05-07T17:18:36.482Z,3.75
2023-05-07T17:21:03.978Z,2.72
2023-05-07T17:23:31.573Z,1.88
2023-05-07T17:25:58.958Z,2.15
2023-05-07T17:28:26.340Z,1.65
2023-05-07T17:30:53.664Z,1.80
2023-05-07T17:33:22.259Z,1.92
2023-05-07T17:35:50.209Z,1.70
2023-05-07T17:38:17.696Z,1.98
2023-05-07T17:40:45.015Z,1.63
2023-05-07T17:43:12.565Z,1.80
2023-05-07T17:45:40.462Z,1.50
2023-05-07T17:48:08.347Z,1.50
2023-05-07T17:50:35.795Z,1.60
2023-05-07T17:53:04.057Z,2.17
2023-05-07T17:55:33.545Z,1.92
2023-05-07T17:58:02.857Z,2.15
2023-05-07T18:00:30.398Z,1.60
2023-05-07T18:03:00.389Z,2.28
2023-05-07T18:05:28.319Z,2.17
2023-05-07T18:07:56.371Z,1.50
2023-05-07T18:10:24.103Z,2.13
2023-05-07T18:12:51.661Z,1.85
2023-05-07T18:15:19.318Z,2.28
2023-05-07T18:17:46.798Z,1.65
2023-05-07T18:20:14.355Z,1.90
2023-05-07T18:22:42.093Z,1.77
2023-05-07T18:25:09.729Z,2.08
2023-05-07T18:27:37.121Z,1.75
2023-05-07T18:30:06.298Z,2.00
2023-05-07T18:32:33.759Z,1.90
2023-05-07T18:35:01.330Z,1.80
2023-05-07T18:37:29.251Z,2.00
2023-05-07T18:39:57.151Z,2.30
2023-05-07T18:42:24.479Z,2.17
2023-05-07T18:44:51.834Z,1.70
2023-05-07T18:47:19.300Z,2.63
2023-05-07T18:49:46.756Z,2.50
2023-05-07T18:52:16.335Z,2.58
2023-05-07T18:54:44.033Z,3.67
2023-05-07T18:57:13.653Z,3.28
2023-05-07T18:59:41.102Z,3.05
2023-05-07T19:02:09.580Z,4.20
2023-05-07T19:04:37.012Z,3.03
2023-05-07T19:07:04.717Z,5.53
2023-05-07T19:09:32.229Z,3.15
2023-05-07T19:11:59.990Z,3.25
2023-05-07T19:14:27.852Z,3.95
2023-05-07T19:17:01.376Z,3.47
2023-05-07T19:19:28.795Z,3.53
2023-05-07T19:21:56.425Z,4.00
2023-05-07T19:24:27.866Z,3.63
2023-05-07T19:26:56.761Z,3.97
2023-05-07T19:29:24.191Z,5.15
2023-05-07T19:31:52.054Z,5.13
2023-05-07T19:34:20.829Z,4.97
2023-05-07T19:36:48.286Z,4.13
2023-05-07T19:39:16.417Z,4.53
2023-05-07T19:41:46.626Z,5.65
2023-05-07T19:44:14.169Z,4.82
2023-05-07T19:46:45.007Z,3.75
2023-05-07T19:49:13.330Z,5.47
2023-05-07T19:51:40.726Z,4.45
2023-05-07T19:54:08.069Z,5.28
2023-05-07T19:56:35.646Z,5.43
2023-05-07T19:59:03.145Z,7.32
2023-05-07T20:01:32.027Z,6.93
2023-05-07T20:04:00.012Z,4.93
2023-05-07T20:06:27.571Z,9.02
2023-05-07T20:08:54.858Z,14.65
2023-05-07T20:11:23.625Z,5.65
2023-05-07T20:13:51.238Z,5.30
2023-05-07T20:16:18.845Z,12.63
2023-05-07T20:18:49.097Z,23.90
2023-05-07T20:21:16.436Z,19.55
2023-05-07T20:23:43.827Z,28.70
2023-05-07T20:26:11.747Z,7.28
2023-05-07T20:28:46.925Z,6.95
2023-05-07T20:31:16.119Z,4.22
2023-05-07T20:33:43.868Z,5.07
2023-05-07T20:36:11.269Z,4.35
2023-05-07T20:38:38.972Z,5.07
2023-05-07T20:41:08.600Z,7.82
2023-05-07T20:43:39.272Z,8.75
2023-05-07T20:46:07.952Z,7.03
2023-05-07T20:48:35.959Z,6.20
2023-05-07T20:51:03.837Z,5.10
2023-05-07T20:53:34.545Z,4.75
2023-05-07T20:56:04.821Z,6.05
2023-05-07T20:58:32.264Z,5.15
2023-05-07T21:00:59.713Z,4.13
2023-05-07T21:03:28.396Z,4.35
2023-05-07T21:05:57.708Z,5.57
2023-05-07T21:08:25.471Z,5.53
2023-05-07T21:10:53.928Z,4.88
2023-05-07T21:13:30.404Z,5.53
2023-05-07T21:15:57.892Z,5.65
2023-05-07T21:18:26.781Z,6.30
2023-05-07T21:21:04.704Z,6.03
2023-05-07T21:23:34.493Z,6.90
2023-05-07T21:26:04.380Z,7.63
2023-05-07T21:28:31.954Z,7.78
2023-05-07T21:31:10.678Z,7.65
2023-05-07T21:33:44.730Z,8.68
2023-05-07T21:36:14.961Z,9.73
2023-05-07T21:38:45.666Z,9.73
2023-05-07T21:41:13.645Z,10.35
2023-05-07T21:43:41.094Z,10.40
2023-05-07T21:46:09.083Z,10.13
2023-05-07T21:48:36.975Z,11.48
2023-05-07T21:51:07.194Z,10.30
2023-05-07T21:53:36.503Z,10.18
2023-05-07T21:56:05.220Z,11.10
2023-05-07T21:58:33.140Z,9.93
2023-05-07T22:01:01.366Z,11.50
2023-05-07T22:03:31.169Z,10.82
2023-05-07T22:05:59.120Z,10.77
2023-05-07T22:08:40.601Z,11.30
2023-05-07T22:11:08.116Z,12.27
2023-05-07T22:13:35.809Z,11.07
2023-05-07T22:16:04.723Z,11.23
2023-05-07T22:18:32.314Z,10.98
2023-05-07T22:21:09.357Z,12.57
2023-05-07T22:23:37.055Z,12.88
2023-05-07T22:26:10.883Z,10.63
2023-05-07T22:28:38.604Z,11.45
2023-05-07T22:31:06.253Z,10.77
2023-05-07T22:33:33.998Z,12.43
2023-05-07T22:36:01.528Z,11.77
2023-05-07T22:38:29.438Z,11.95
2023-05-07T22:40:57.026Z,11.40
2023-05-07T22:43:24.597Z,10.73
2023-05-07T22:46:01.697Z,11.68
2023-05-07T22:48:29.938Z,11.95
2023-05-07T22:51:02.380Z,12.48
2023-05-07T22:53:30.456Z,11.65
2023-05-07T22:55:58.362Z,11.45
2023-05-07T22:58:38.177Z,11.90
2023-05-07T23:01:17.621Z,11.95
2023-05-07T23:03:48.093Z,14.45
2023-05-07T23:06:22.058Z,11.63
2023-05-07T23:08:49.767Z,11.73
2023-05-07T23:11:37.217Z,10.90
2023-05-07T23:14:04.864Z,10.90
2023-05-07T23:16:34.360Z,12.35
2023-05-07T23:19:07.521Z,12.57
2023-05-07T23:21:35.011Z,11.50
2023-05-07T23:24:02.682Z,12.18
2023-05-07T23:26:31.552Z,12.52
2023-05-07T23:28:59.234Z,11.00
2023-05-07T23:31:33.046Z,12.57
2023-05-07T23:34:09.636Z,12.50
2023-05-07T23:37:28.178Z,11.73
2023-05-07T23:40:04.042Z,12.45
2023-05-07T23:42:34.629Z,12.40
2023-05-07T23:48:17.251Z,11.48
2023-05-07T23:50:44.953Z,11.55
2023-05-07T23:53:30.140Z,12.10
2023-05-07T23:56:04.042Z,11.10
2023-05-07T23:58:40.851Z,10.95
